Warrensburg, NY (12885)

8:00 PM EDT on September 01, 2015 (GMT -0400)
APRSWXNET | | Change Station
CLOSE
Current Station
Personal Weather Station
Location: Lake George, NY
Elevation: 935 ft
Nearby Weather Stations

Elev 935 ft 43.39 °N, 73.73 °W | Updated 52 minutes ago

Clear
Clear
79 °F
Feels Like 81 °F
N
5
Wind Variable Wind from NW
Gusts 0.0 mph

Today
High -- | Low -- °F
--% Chance of Precip.
Yesterday
High -- | Low -- °F
Precip. -- in
6:18 AM 7:30 PM
Waning Gibbous, 85% visible
Pressure 30.00 in
Visibility 10.0 miles
Clouds Clear
Heat Index 81 °F
Dew Point 65 °F
Humidity 62%
Rainfall in
Snow Depth Not available.
UV 0 out of 12
Pollen 9.30 out of 12
Air Quality Not available.
Flu Activity Not available.
METAR KGFL 012353Z AUTO 19003KT 10SM CLR 24/18 A3000 RMK AO2 SLP158 T02390178 10300 20239 53000
Pressure 30.00 in
Visibility 10.0 miles
Clouds Clear
Heat Index 81 °F
Dew Point 65 °F
Humidity 62%
Rainfall in
Snow Depth Not available.
UV 0 out of 12
Pollen 9.30 out of 12
Air Quality Not available.
Flu Activity Not available.
METAR KGFL 012353Z AUTO 19003KT 10SM CLR 24/18 A3000 RMK AO2 SLP158 T02390178 10300 20239 53000

10-Day Weather Forecast

×

Almanac

Astronomy

Sep. 01, 2015 Rise Set
Actual Time
Civil Twilight
Nautical Twilight
Astronomical Twilight
Moon
Length of Visible Light
Length of Day
Tomorrow will be .
, % of the Moon is Illuminated

Today's Extremes

State Highs State Lows

Community

WunderPhotos

Upload Photos

1,851,653 photos uploaded!

WunderBlogs® & News

Nearby

Air Quality

  Air Quality AQ Index Pollutant
Not available.

Snow Depth

Station Depth Elevation

Earthquake Activity

City Distance Mag. Time & Date
Minimum magnitude displayed is 2.5.

Coastal Water Temperatures

Place Temperature

Stations

Nearby Weather Stations

Station Location Temp. Windchill Dew Point Humidity Wind Precip. Elev Updated Type